createdAt,value
2019-01-23T00:00:47.225Z,23.70
2019-01-23T00:03:14.470Z,23.10
2019-01-23T00:05:41.931Z,24.45
2019-01-23T00:08:09.129Z,24.25
2019-01-23T00:10:36.142Z,23.20
2019-01-23T00:13:04.191Z,25.62
2019-01-23T00:15:31.871Z,26.42
2019-01-23T00:17:59.370Z,22.82
2019-01-23T00:20:26.584Z,23.95
2019-01-23T00:22:53.835Z,23.05
2019-01-23T00:25:20.763Z,22.07
2019-01-23T00:27:47.660Z,23.27
2019-01-23T00:30:15.175Z,25.40
2019-01-23T00:32:42.291Z,23.05
2019-01-23T00:35:09.611Z,22.07
2019-01-23T00:37:37.135Z,23.40
2019-01-23T00:40:06.964Z,22.90
2019-01-23T00:42:34.313Z,23.77
2019-01-23T00:45:01.792Z,24.00
2019-01-23T00:47:28.788Z,23.75
2019-01-23T00:49:56.089Z,22.73
2019-01-23T00:52:23.373Z,23.95
2019-01-23T00:54:50.773Z,22.45
2019-01-23T00:57:18.036Z,22.93
2019-01-23T00:59:45.791Z,22.58
2019-01-23T01:02:13.037Z,24.47
2019-01-23T01:04:40.107Z,23.40
2019-01-23T01:07:07.108Z,23.12
2019-01-23T01:09:34.321Z,23.42
2019-01-23T01:12:01.859Z,24.75
2019-01-23T01:14:28.901Z,23.40
2019-01-23T01:16:56.098Z,23.42
2019-01-23T01:19:23.132Z,24.05
2019-01-23T01:21:50.180Z,23.90
2019-01-23T01:24:17.444Z,22.37
2019-01-23T01:26:44.727Z,24.02
2019-01-23T01:29:12.117Z,24.50
2019-01-23T01:31:39.242Z,23.87
2019-01-23T01:34:06.831Z,23.55
2019-01-23T01:36:34.051Z,24.50
2019-01-23T01:39:01.192Z,24.37
2019-01-23T01:41:28.351Z,23.62
2019-01-23T01:43:55.381Z,23.30
2019-01-23T01:46:22.284Z,24.23
2019-01-23T01:48:49.484Z,21.25
2019-01-23T01:51:16.568Z,21.85
2019-01-23T01:53:43.673Z,23.87
2019-01-23T01:56:10.983Z,23.85
2019-01-23T01:58:38.007Z,24.75
2019-01-23T02:01:05.218Z,22.35
2019-01-23T02:03:32.444Z,25.10
2019-01-23T02:05:59.391Z,24.87
2019-01-23T02:08:26.725Z,22.95
2019-01-23T02:10:53.979Z,23.40
2019-01-23T02:13:21.010Z,23.05
2019-01-23T02:15:48.101Z,23.83
2019-01-23T02:18:15.133Z,24.82
2019-01-23T02:20:42.644Z,23.12
2019-01-23T02:23:10.949Z,23.60
2019-01-23T02:25:38.212Z,25.65
2019-01-23T02:28:05.506Z,23.85
2019-01-23T02:30:32.946Z,24.30
2019-01-23T02:32:59.884Z,25.37
2019-01-23T02:35:27.482Z,24.00
2019-01-23T02:37:54.440Z,26.48
2019-01-23T02:40:22.423Z,24.10
2019-01-23T02:42:49.835Z,24.72
2019-01-23T02:45:17.358Z,22.82
2019-01-23T02:47:45.494Z,24.43
2019-01-23T02:50:13.453Z,24.12
2019-01-23T02:52:40.577Z,24.65
2019-01-23T02:55:07.750Z,24.98
2019-01-23T02:57:34.954Z,24.72
2019-01-23T03:00:03.649Z,23.10
2019-01-23T03:02:32.430Z,24.30
2019-01-23T03:04:59.801Z,23.27
2019-01-23T03:07:27.142Z,21.23
2019-01-23T03:09:54.164Z,22.40
2019-01-23T03:12:21.185Z,24.02
2019-01-23T03:14:49.208Z,23.67
2019-01-23T03:17:17.599Z,23.62
2019-01-23T03:19:45.177Z,24.07
2019-01-23T03:22:12.389Z,22.98
2019-01-23T03:24:39.637Z,23.12
2019-01-23T03:27:06.575Z,23.25
2019-01-23T03:29:33.467Z,23.98
2019-01-23T03:32:01.406Z,24.67
2019-01-23T03:34:28.655Z,24.85
2019-01-23T03:36:55.913Z,24.57
2019-01-23T03:39:23.574Z,24.95
2019-01-23T03:41:50.501Z,23.20
2019-01-23T03:44:17.777Z,25.43
2019-01-23T03:46:45.441Z,25.50
2019-01-23T03:49:12.374Z,24.20
2019-01-23T03:51:39.644Z,23.67
2019-01-23T03:54:06.604Z,24.80
2019-01-23T03:56:33.765Z,22.90
2019-01-23T03:59:00.978Z,24.60
2019-01-23T04:01:28.767Z,24.00
2019-01-23T04:03:55.928Z,23.45
2019-01-23T04:06:22.939Z,23.52
2019-01-23T04:08:50.600Z,23.95
2019-01-23T04:11:17.997Z,23.42
2019-01-23T04:13:45.016Z,24.00
2019-01-23T04:16:12.019Z,23.75
2019-01-23T04:18:39.286Z,23.20
2019-01-23T04:21:06.549Z,23.07
2019-01-23T04:23:34.004Z,24.63
2019-01-23T04:26:01.180Z,23.92
2019-01-23T04:28:28.838Z,22.65
2019-01-23T04:30:55.885Z,22.87
2019-01-23T04:33:22.989Z,21.68
2019-01-23T04:35:49.950Z,23.18
2019-01-23T04:38:16.854Z,23.25
2019-01-23T04:40:45.839Z,21.77
2019-01-23T04:43:13.283Z,23.10
2019-01-23T04:45:40.319Z,23.52
2019-01-23T04:48:07.236Z,24.27
2019-01-23T04:50:54.334Z,22.58
2019-01-23T04:53:30.341Z,22.48
2019-01-23T04:55:57.401Z,21.87
2019-01-23T04:58:24.958Z,24.37
2019-01-23T05:00:52.280Z,23.57
2019-01-23T05:03:19.228Z,22.73
2019-01-23T05:05:46.319Z,24.12
2019-01-23T05:08:13.759Z,22.22
2019-01-23T05:10:41.013Z,23.30
2019-01-23T05:13:07.959Z,22.82
2019-01-23T05:15:35.209Z,21.23
2019-01-23T05:18:03.218Z,22.32
2019-01-23T05:20:30.288Z,21.07
2019-01-23T05:22:57.583Z,21.50
2019-01-23T05:25:24.637Z,22.42
2019-01-23T05:27:51.985Z,20.97
2019-01-23T05:30:21.164Z,21.97
2019-01-23T05:32:48.193Z,22.55
2019-01-23T05:35:15.408Z,20.75
2019-01-23T05:37:42.734Z,22.50
2019-01-23T05:40:10.902Z,20.37
2019-01-23T05:42:38.070Z,21.23
2019-01-23T05:45:05.249Z,20.72
2019-01-23T05:47:32.814Z,20.85
2019-01-23T05:50:00.330Z,22.20
2019-01-23T05:52:27.497Z,21.05
2019-01-23T05:54:54.516Z,20.32
2019-01-23T05:57:21.672Z,20.17
2019-01-23T05:59:49.390Z,21.10
2019-01-23T06:02:16.377Z,20.57
2019-01-23T06:04:43.727Z,21.45
2019-01-23T06:07:11.240Z,20.85
2019-01-23T06:09:38.171Z,21.80
2019-01-23T06:12:06.180Z,22.58
2019-01-23T06:14:33.604Z,20.57
2019-01-23T06:17:00.955Z,20.92
2019-01-23T06:19:28.022Z,20.85
2019-01-23T06:21:55.171Z,21.73
2019-01-23T06:24:22.776Z,21.95
2019-01-23T06:26:50.040Z,21.10
2019-01-23T06:29:16.997Z,21.15
2019-01-23T06:31:44.281Z,21.25
2019-01-23T06:34:11.172Z,20.77
2019-01-23T06:36:38.239Z,21.17
2019-01-23T06:39:07.524Z,22.25
2019-01-23T06:41:34.881Z,20.60
2019-01-23T06:44:01.808Z,20.92
2019-01-23T06:46:29.188Z,20.75
2019-01-23T06:48:56.252Z,22.17
2019-01-23T06:51:23.425Z,20.85
2019-01-23T06:53:50.768Z,21.75
2019-01-23T06:56:18.789Z,21.57
2019-01-23T06:58:45.909Z,22.62
2019-01-23T07:01:13.218Z,21.30
2019-01-23T07:03:40.124Z,21.23
2019-01-23T07:06:07.957Z,21.93
2019-01-23T07:08:34.901Z,21.23
2019-01-23T07:11:02.536Z,21.33
2019-01-23T07:13:29.597Z,21.93
2019-01-23T07:15:56.685Z,20.90
2019-01-23T07:18:23.705Z,21.62
2019-01-23T07:20:50.715Z,20.12
2019-01-23T07:23:18.089Z,21.68
2019-01-23T07:25:45.013Z,21.45
2019-01-23T07:28:12.405Z,22.07
2019-01-23T07:30:41.174Z,21.52
2019-01-23T07:33:08.382Z,22.25
2019-01-23T07:35:35.497Z,21.80
2019-01-23T07:38:02.635Z,20.32
2019-01-23T07:40:30.380Z,20.92
2019-01-23T07:42:57.393Z,22.07
2019-01-23T07:45:25.873Z,21.68
2019-01-23T07:47:53.421Z,23.07
2019-01-23T07:50:20.560Z,20.97
2019-01-23T07:52:48.001Z,20.60
2019-01-23T07:55:15.885Z,20.68
2019-01-23T07:57:44.239Z,21.55
2019-01-23T08:00:14.146Z,22.45
2019-01-23T08:02:41.176Z,23.05
2019-01-23T08:05:09.256Z,22.48
2019-01-23T08:07:36.313Z,22.15
2019-01-23T08:10:05.629Z,23.40
2019-01-23T08:12:32.785Z,23.52
2019-01-23T08:14:59.797Z,22.02
2019-01-23T08:17:32.700Z,22.48
2019-01-23T08:19:58.380Z,22.95
2019-01-23T08:22:25.729Z,23.38
2019-01-23T08:24:52.853Z,23.90
2019-01-23T08:27:19.832Z,22.98
2019-01-23T08:29:47.312Z,23.83
2019-01-23T08:32:14.454Z,24.18
2019-01-23T08:34:41.722Z,22.82
2019-01-23T08:37:08.649Z,23.47
2019-01-23T08:39:36.014Z,23.80
2019-01-23T08:42:03.901Z,22.15
2019-01-23T08:44:31.215Z,23.18
2019-01-23T08:46:59.616Z,23.30
2019-01-23T08:49:26.925Z,23.92
2019-01-23T08:51:54.141Z,23.83
2019-01-23T08:54:21.053Z,23.42
2019-01-23T08:56:48.092Z,23.42
2019-01-23T08:59:15.642Z,24.25
2019-01-23T09:01:43.173Z,25.05
2019-01-23T09:04:10.507Z,23.52
2019-01-23T09:06:37.897Z,23.35
2019-01-23T09:09:06.461Z,24.98
2019-01-23T09:11:33.800Z,24.55
2019-01-23T09:14:01.692Z,24.67
2019-01-23T09:16:28.751Z,23.42
2019-01-23T09:18:55.705Z,24.63
2019-01-23T09:21:23.107Z,24.47
2019-01-23T09:23:50.436Z,23.47
2019-01-23T09:26:17.880Z,24.98
2019-01-23T09:28:45.555Z,24.30
2019-01-23T09:31:39.587Z,23.30
2019-01-23T09:34:21.665Z,25.35
2019-01-23T09:37:02.079Z,25.08
2019-01-23T09:40:20.850Z,24.55
2019-01-23T09:43:05.868Z,23.27
2019-01-23T09:46:21.460Z,23.32
2019-01-23T09:49:13.056Z,24.15
2019-01-23T09:52:14.341Z,23.62
2019-01-23T09:54:41.671Z,22.17
2019-01-23T09:57:08.881Z,24.90
2019-01-23T09:59:37.153Z,24.70
2019-01-23T10:02:16.943Z,24.70
2019-01-23T10:04:44.197Z,24.55
2019-01-23T10:07:11.280Z,26.05
2019-01-23T10:09:38.524Z,25.65
2019-01-23T10:12:05.411Z,23.85
2019-01-23T10:14:32.857Z,22.82
2019-01-23T10:17:00.412Z,23.70
2019-01-23T10:19:27.949Z,23.70
2019-01-23T10:21:55.485Z,24.52
2019-01-23T10:24:23.276Z,23.05
2019-01-23T10:26:50.235Z,23.30
2019-01-23T10:29:17.523Z,24.47
2019-01-23T10:31:44.429Z,23.47
2019-01-23T10:34:11.460Z,25.02
2019-01-23T10:36:38.633Z,24.82
2019-01-23T10:39:07.573Z,24.92
2019-01-23T10:41:35.361Z,24.75
2019-01-23T10:44:02.506Z,23.57
2019-01-23T10:46:29.479Z,24.30
2019-01-23T10:48:56.648Z,23.62
2019-01-23T10:51:23.713Z,25.20
2019-01-23T10:53:51.084Z,23.30
2019-01-23T10:56:18.447Z,23.87
2019-01-23T10:58:46.012Z,24.32
2019-01-23T11:01:13.566Z,23.62
2019-01-23T11:03:41.014Z,25.10
2019-01-23T11:06:08.156Z,22.25
2019-01-23T11:08:35.361Z,23.70
2019-01-23T11:11:02.929Z,23.85
2019-01-23T11:13:30.171Z,23.67
2019-01-23T11:15:57.659Z,24.10
2019-01-23T11:18:25.589Z,23.22
2019-01-23T11:20:53.221Z,23.55
2019-01-23T11:23:20.518Z,23.90
2019-01-23T11:25:47.760Z,23.85
2019-01-23T11:28:15.190Z,23.75
2019-01-23T11:30:42.652Z,23.12
2019-01-23T11:33:09.593Z,21.75
2019-01-23T11:35:36.724Z,22.17
2019-01-23T11:38:16.961Z,22.70
2019-01-23T11:40:44.975Z,22.60
2019-01-23T11:43:12.433Z,22.40
2019-01-23T11:45:39.662Z,22.65
2019-01-23T11:48:06.936Z,22.42
2019-01-23T11:50:34.212Z,22.75
2019-01-23T11:53:01.340Z,21.20
2019-01-23T11:55:28.797Z,21.25
2019-01-23T11:57:56.261Z,22.67
2019-01-23T12:00:25.144Z,22.15
2019-01-23T12:02:52.671Z,22.73
2019-01-23T12:05:20.780Z,23.62
2019-01-23T12:07:48.117Z,22.25
2019-01-23T12:10:19.899Z,22.70
2019-01-23T12:12:47.056Z,22.82
2019-01-23T12:15:16.705Z,22.17
2019-01-23T12:17:43.912Z,22.55
2019-01-23T12:20:12.279Z,20.55
2019-01-23T12:22:39.627Z,20.72
2019-01-23T12:25:07.245Z,24.25
2019-01-23T12:27:34.644Z,20.52
2019-01-23T12:30:02.829Z,21.05
2019-01-23T12:32:30.075Z,20.72
2019-01-23T12:34:57.451Z,22.60
2019-01-23T12:37:24.887Z,22.70
2019-01-23T12:39:52.228Z,21.82
2019-01-23T12:42:20.110Z,21.55
2019-01-23T12:44:47.128Z,22.67
2019-01-23T12:47:14.620Z,22.62
2019-01-23T12:49:41.873Z,23.85
2019-01-23T12:52:08.893Z,23.12
2019-01-23T12:54:37.217Z,22.50
2019-01-23T12:57:04.673Z,23.32
2019-01-23T12:59:31.624Z,22.27
2019-01-23T13:01:58.701Z,21.97
2019-01-23T13:04:25.760Z,21.45
2019-01-23T13:06:52.931Z,21.25
2019-01-23T13:09:20.295Z,23.52
2019-01-23T13:11:47.945Z,22.37
2019-01-23T13:14:15.020Z,21.77
2019-01-23T13:16:41.924Z,21.87
2019-01-23T13:19:10.197Z,21.33
2019-01-23T13:21:37.445Z,20.92
2019-01-23T13:24:04.858Z,22.05
2019-01-23T13:26:32.038Z,22.60
2019-01-23T13:29:00.292Z,23.15
2019-01-23T13:31:28.703Z,23.62
2019-01-23T13:33:55.839Z,24.90
2019-01-23T13:36:22.999Z,23.70
2019-01-23T13:38:50.617Z,24.27
2019-01-23T13:41:18.278Z,22.77
2019-01-23T13:43:45.218Z,23.67
2019-01-23T13:46:12.593Z,22.75
2019-01-23T13:48:39.520Z,23.40
2019-01-23T13:51:06.561Z,23.22
2019-01-23T13:53:33.616Z,23.92
2019-01-23T13:56:00.751Z,24.02
2019-01-23T13:58:27.828Z,23.60
2019-01-23T14:00:54.980Z,24.47
2019-01-23T14:03:22.429Z,24.45
2019-01-23T14:05:49.898Z,24.00
2019-01-23T14:08:17.015Z,24.55
2019-01-23T14:10:43.967Z,24.55
2019-01-23T14:13:11.427Z,24.25
2019-01-23T14:15:39.390Z,23.83
2019-01-23T14:18:07.037Z,24.90
2019-01-23T14:20:34.624Z,24.50
2019-01-23T14:23:04.028Z,25.02
2019-01-23T14:25:31.169Z,24.57
2019-01-23T14:27:58.284Z,24.30
2019-01-23T14:30:31.580Z,25.68
2019-01-23T14:32:58.922Z,24.92
2019-01-23T14:35:26.397Z,24.98
2019-01-23T14:38:00.310Z,25.52
2019-01-23T14:40:22.332Z,25.45
2019-01-23T14:42:49.556Z,26.02
2019-01-23T14:45:18.495Z,26.80
2019-01-23T14:47:45.916Z,28.10
2019-01-23T14:50:13.249Z,26.77
2019-01-23T14:52:41.405Z,25.82
2019-01-23T14:55:08.602Z,28.38
2019-01-23T14:57:37.036Z,34.55
2019-01-23T15:00:07.167Z,31.30
2019-01-23T15:02:34.470Z,27.82
2019-01-23T15:05:01.820Z,25.48
2019-01-23T15:07:28.836Z,25.48
2019-01-23T15:09:57.185Z,24.65
2019-01-23T15:12:24.173Z,24.05
2019-01-23T15:14:51.431Z,23.07
2019-01-23T15:17:19.024Z,24.80
2019-01-23T15:19:46.227Z,23.87
2019-01-23T15:22:13.272Z,24.52
2019-01-23T15:24:41.217Z,24.85
2019-01-23T15:27:08.285Z,23.98
2019-01-23T15:29:37.413Z,23.52
2019-01-23T15:32:04.741Z,23.83
2019-01-23T15:34:32.209Z,24.18
2019-01-23T15:36:59.901Z,24.65
2019-01-23T15:39:27.336Z,24.23
2019-01-23T15:41:54.549Z,24.32
2019-01-23T15:44:22.770Z,23.07
2019-01-23T15:46:49.709Z,24.82
2019-01-23T15:49:16.597Z,22.55
2019-01-23T15:51:43.785Z,24.23
2019-01-23T15:54:11.051Z,25.15
2019-01-23T15:56:38.052Z,24.92
2019-01-23T15:59:06.761Z,25.52
2019-01-23T16:01:34.607Z,24.75
2019-01-23T16:04:01.624Z,24.47
2019-01-23T16:06:29.873Z,24.57
2019-01-23T16:08:57.287Z,23.85
2019-01-23T16:11:24.829Z,23.87
2019-01-23T16:13:52.536Z,24.92
2019-01-23T16:16:19.964Z,24.70
2019-01-23T16:18:48.085Z,25.32
2019-01-23T16:21:16.115Z,24.90
2019-01-23T16:23:43.573Z,25.80
2019-01-23T16:26:10.749Z,24.75
2019-01-23T16:28:38.591Z,24.95
2019-01-23T16:31:05.953Z,25.17
2019-01-23T16:33:33.232Z,25.50
2019-01-23T16:36:00.664Z,24.82
2019-01-23T16:38:28.224Z,26.45
2019-01-23T16:40:55.705Z,26.23
2019-01-23T16:43:22.765Z,27.80
2019-01-23T16:45:49.889Z,27.10
2019-01-23T16:48:17.304Z,27.75
2019-01-23T16:50:44.953Z,26.82
2019-01-23T16:53:12.077Z,26.52
2019-01-23T16:55:39.477Z,25.15
2019-01-23T16:58:07.517Z,25.55
2019-01-23T17:00:35.297Z,27.15
2019-01-23T17:03:03.222Z,26.55
2019-01-23T17:05:31.132Z,25.72
2019-01-23T17:08:00.271Z,27.73
2019-01-23T17:10:28.648Z,27.45
2019-01-23T17:12:55.954Z,27.30
2019-01-23T17:15:23.133Z,32.20
2019-01-23T17:17:50.473Z,34.23
2019-01-23T17:20:30.285Z,31.30
2019-01-23T17:22:57.323Z,30.65
2019-01-23T17:25:24.969Z,30.08
2019-01-23T17:27:52.093Z,29.10
2019-01-23T17:30:19.314Z,26.55
2019-01-23T17:32:47.267Z,28.20
2019-01-23T17:35:14.801Z,28.00
2019-01-23T17:37:42.775Z,26.02
2019-01-23T17:40:11.825Z,26.35
2019-01-23T17:42:39.180Z,26.00
2019-01-23T17:45:10.800Z,25.75
2019-01-23T17:47:38.094Z,25.68
2019-01-23T17:50:05.981Z,25.52
2019-01-23T17:52:32.937Z,24.87
2019-01-23T17:54:59.980Z,23.25
2019-01-23T17:57:27.070Z,25.17
2019-01-23T17:59:54.200Z,23.90
2019-01-23T18:02:21.277Z,24.25
2019-01-23T18:04:48.409Z,25.23
2019-01-23T18:07:15.910Z,25.35
2019-01-23T18:09:43.503Z,24.52
2019-01-23T18:12:10.709Z,25.80
2019-01-23T18:14:37.846Z,23.83
2019-01-23T18:17:05.029Z,23.90
2019-01-23T18:19:32.321Z,24.72
2019-01-23T18:21:59.608Z,25.77
2019-01-23T18:24:26.741Z,24.07
2019-01-23T18:26:54.735Z,23.40
2019-01-23T18:29:21.857Z,22.75
2019-01-23T18:31:52.667Z,24.72
2019-01-23T18:35:06.867Z,23.18
2019-01-23T18:38:05.725Z,23.32
2019-01-23T18:41:27.055Z,23.75
2019-01-23T18:44:31.804Z,23.35
2019-01-23T18:48:04.810Z,23.83
2019-01-23T18:51:15.578Z,24.85
2019-01-23T18:53:42.725Z,23.55
2019-01-23T18:56:10.188Z,24.00
2019-01-23T18:58:38.405Z,22.30
2019-01-23T19:01:05.624Z,23.32
2019-01-23T19:03:32.651Z,23.85
2019-01-23T19:05:59.880Z,25.27
2019-01-23T19:08:27.143Z,25.55
2019-01-23T19:10:54.480Z,24.85
2019-01-23T19:13:22.623Z,25.08
2019-01-23T19:15:49.661Z,24.55
2019-01-23T19:18:16.705Z,24.40
2019-01-23T19:20:43.908Z,24.47
2019-01-23T19:23:10.955Z,25.80
2019-01-23T19:25:38.480Z,25.57
2019-01-23T19:28:05.917Z,25.02
2019-01-23T19:30:33.043Z,25.50
2019-01-23T19:33:00.097Z,26.68
2019-01-23T19:35:27.562Z,26.33
2019-01-23T19:37:54.611Z,24.63
2019-01-23T19:40:22.126Z,25.25
2019-01-23T19:42:49.386Z,24.37
2019-01-23T19:45:18.571Z,26.20
2019-01-23T19:47:45.824Z,24.90
2019-01-23T19:50:13.228Z,24.35
2019-01-23T19:52:40.377Z,24.20
2019-01-23T19:55:09.205Z,25.23
2019-01-23T19:57:36.456Z,24.05
2019-01-23T20:00:05.965Z,24.85
2019-01-23T20:02:33.192Z,23.80
2019-01-23T20:05:00.190Z,23.73
2019-01-23T20:07:27.459Z,24.35
2019-01-23T20:09:54.825Z,23.75
2019-01-23T20:12:22.362Z,24.47
2019-01-23T20:14:49.601Z,26.17
2019-01-23T20:17:16.874Z,27.17
2019-01-23T20:19:43.813Z,25.12
2019-01-23T20:22:10.976Z,26.85
2019-01-23T20:24:38.155Z,33.78
2019-01-23T20:27:05.271Z,29.00
2019-01-23T20:29:34.364Z,30.85
2019-01-23T20:32:01.392Z,29.52
2019-01-23T20:34:28.806Z,29.85
2019-01-23T20:36:56.021Z,35.98
2019-01-23T20:39:23.146Z,31.07
2019-01-23T20:41:50.236Z,24.80
2019-01-23T20:44:17.285Z,24.02
2019-01-23T20:46:44.377Z,25.50
2019-01-23T20:49:11.316Z,24.50
2019-01-23T20:51:38.525Z,23.92
2019-01-23T20:54:05.575Z,24.35
2019-01-23T20:56:32.792Z,24.18
2019-01-23T20:59:00.077Z,24.77
2019-01-23T21:01:27.672Z,24.32
2019-01-23T21:03:54.904Z,25.60
2019-01-23T21:06:22.107Z,26.00
2019-01-23T21:08:49.561Z,25.27
2019-01-23T21:11:16.712Z,25.25
2019-01-23T21:13:44.107Z,25.20
2019-01-23T21:16:11.122Z,24.57
2019-01-23T21:18:39.459Z,23.98
2019-01-23T21:21:06.609Z,25.97
2019-01-23T21:23:34.215Z,26.17
2019-01-23T21:26:01.299Z,24.80
2019-01-23T21:28:28.183Z,24.05
2019-01-23T21:30:55.193Z,24.57
2019-01-23T21:33:22.713Z,24.30
2019-01-23T21:35:49.636Z,24.65
2019-01-23T21:38:17.277Z,25.70
2019-01-23T21:40:44.425Z,24.75
2019-01-23T21:43:11.971Z,25.82
2019-01-23T21:45:39.232Z,27.02
2019-01-23T21:48:06.923Z,26.07
2019-01-23T21:50:34.225Z,24.92
2019-01-23T21:53:01.536Z,24.92
2019-01-23T21:55:28.595Z,25.75
2019-01-23T21:57:56.071Z,23.22
2019-01-23T22:00:29.556Z,24.35
2019-01-23T22:02:57.674Z,24.57
2019-01-23T22:05:24.751Z,25.43
2019-01-23T22:07:52.137Z,24.67
2019-01-23T22:10:19.305Z,24.27
2019-01-23T22:12:46.377Z,23.52
2019-01-23T22:15:15.448Z,23.70
2019-01-23T22:17:43.137Z,25.15
2019-01-23T22:20:12.357Z,24.15
2019-01-23T22:22:39.929Z,24.77
2019-01-23T22:25:08.321Z,26.33
2019-01-23T22:27:36.102Z,24.15
2019-01-23T22:30:05.573Z,24.72
2019-01-23T22:32:32.739Z,26.42
2019-01-23T22:35:00.001Z,25.57
2019-01-23T22:37:27.056Z,26.73
2019-01-23T22:39:54.410Z,25.27
2019-01-23T22:42:21.743Z,24.72
2019-01-23T22:44:48.967Z,25.95
2019-01-23T22:47:16.099Z,23.85
2019-01-23T22:49:43.133Z,24.80
2019-01-23T22:52:10.278Z,26.15
2019-01-23T22:54:37.221Z,24.72
2019-01-23T22:57:04.658Z,24.75
2019-01-23T22:59:31.941Z,24.98
2019-01-23T23:01:58.964Z,26.30
2019-01-23T23:04:26.411Z,25.25
2019-01-23T23:06:53.367Z,25.35
2019-01-23T23:09:20.504Z,25.48
2019-01-23T23:11:47.609Z,25.88
2019-01-23T23:14:14.851Z,25.88
2019-01-23T23:16:42.095Z,24.87
2019-01-23T23:19:09.113Z,24.92
2019-01-23T23:21:36.597Z,25.45
2019-01-23T23:24:03.621Z,24.05
2019-01-23T23:26:30.760Z,26.15
2019-01-23T23:28:57.676Z,25.23
2019-01-23T23:31:24.812Z,26.05
2019-01-23T23:33:52.071Z,25.65
2019-01-23T23:36:19.735Z,26.52
2019-01-23T23:38:46.780Z,24.85
2019-01-23T23:41:13.909Z,25.77
2019-01-23T23:43:41.055Z,25.68
2019-01-23T23:46:08.090Z,24.25
2019-01-23T23:48:35.539Z,26.30
2019-01-23T23:51:02.771Z,25.70
2019-01-23T23:53:30.181Z,26.48
2019-01-23T23:55:57.345Z,26.10
2019-01-23T23:58:24.675Z,25.62
